N119SB RJGG-RJBE
Flight info
| Callsign | N119SB |
|---|---|
| Flight time | N/A |
| Altitude | 3000 |
| Route | DCT SUNAM DCT GUJYO DCT HIKNE DCT MIDER DCT KYOTO DCT IKOMA DCT NANKO DCT |
| Aircraft | C172/L-SFG/C |
Departure
| Time | 2026-05-05 16:55 |
|---|---|
| Airport | Chubu Centrair International Airport (RJGG) |
Arrival
| Time | N/A |
|---|---|
| Airport | Kobe Airport (RJBE) |
| Time | Latitude | Longitude | Altitude | Speed | Heading |
|---|---|---|---|---|---|
| 2026-05-05 16:36 | 34.86658 | 136.80916 | 14 ft | 0 kts | 79° |
| 2026-05-05 16:51 | 34.86660 | 136.80923 | 14 ft | 3 kts | 68° |
| 2026-05-05 16:51 | 34.86668 | 136.80904 | 14 ft | 8 kts | 212° |
| 2026-05-05 16:51 | 34.86646 | 136.80830 | 14 ft | 11 kts | 263° |
| 2026-05-05 16:52 | 34.86700 | 136.80785 | 14 ft | 12 kts | 348° |
| 2026-05-05 16:52 | 34.86781 | 136.80765 | 14 ft | 12 kts | 350° |
| 2026-05-05 16:52 | 34.86831 | 136.80705 | 14 ft | 11 kts | 263° |
| 2026-05-05 16:52 | 34.86816 | 136.80602 | 14 ft | 13 kts | 260° |
| 2026-05-05 16:53 | 34.86800 | 136.80508 | 14 ft | 10 kts | 258° |
| 2026-05-05 16:53 | 34.86787 | 136.80430 | 14 ft | 9 kts | 258° |
| 2026-05-05 16:53 | 34.86766 | 136.80347 | 14 ft | 11 kts | 228° |
| 2026-05-05 16:53 | 34.86690 | 136.80336 | 13 ft | 16 kts | 169° |
| 2026-05-05 16:54 | 34.86426 | 136.80397 | 15 ft | 64 kts | 169° |
| 2026-05-05 16:54 | 34.85912 | 136.80537 | 140 ft | 80 kts | 168° |
| 2026-05-05 16:54 | 34.85356 | 136.80717 | 359 ft | 82 kts | 159° |
| 2026-05-05 16:54 | 34.84802 | 136.80982 | 529 ft | 89 kts | 159° |
| 2026-05-05 16:55 | 34.84209 | 136.81272 | 712 ft | 93 kts | 159° |
| 2026-05-05 16:55 | 34.83613 | 136.81568 | 909 ft | 93 kts | 153° |
| 2026-05-05 16:55 | 34.83287 | 136.82219 | 1100 ft | 93 kts | 111° |
| 2026-05-05 16:55 | 34.83041 | 136.82949 | 1291 ft | 95 kts | 111° |
| 2026-05-05 16:56 | 34.82840 | 136.83711 | 1479 ft | 98 kts | 90° |
| 2026-05-05 16:56 | 34.82945 | 136.84531 | 1687 ft | 98 kts | 84° |
| 2026-05-05 16:56 | 34.83045 | 136.85356 | 1888 ft | 99 kts | 82° |
| 2026-05-05 16:56 | 34.83150 | 136.86212 | 1972 ft | 107 kts | 82° |
| 2026-05-05 16:57 | 34.83260 | 136.87117 | 1976 ft | 110 kts | 82° |
| 2026-05-05 16:57 | 34.83426 | 136.88027 | 1968 ft | 112 kts | 59° |
| 2026-05-05 16:57 | 34.83985 | 136.88683 | 1974 ft | 112 kts | 43° |
| 2026-05-05 16:57 | 34.84566 | 136.89317 | 1972 ft | 112 kts | 42° |
| 2026-05-05 16:58 | 34.85217 | 136.89821 | 1966 ft | 112 kts | 20° |
| 2026-05-05 16:58 | 34.85934 | 136.90163 | 1968 ft | 112 kts | 22° |
| 2026-05-05 16:58 | 34.86699 | 136.90200 | 1971 ft | 112 kts | 351° |
| 2026-05-05 16:58 | 34.87470 | 136.90064 | 1972 ft | 112 kts | 352° |
| 2026-05-05 16:59 | 34.88242 | 136.89925 | 1972 ft | 112 kts | 352° |
| 2026-05-05 16:59 | 34.89015 | 136.89786 | 1973 ft | 112 kts | 352° |
| 2026-05-05 16:59 | 34.89788 | 136.89646 | 1972 ft | 112 kts | 352° |
| 2026-05-05 16:59 | 34.90561 | 136.89506 | 1971 ft | 112 kts | 352° |
| 2026-05-05 17:00 | 34.91334 | 136.89367 | 1971 ft | 112 kts | 352° |
| 2026-05-05 17:00 | 34.92107 | 136.89228 | 1971 ft | 112 kts | 352° |
| 2026-05-05 17:00 | 34.92879 | 136.89088 | 1971 ft | 112 kts | 352° |
| 2026-05-05 17:00 | 34.93642 | 136.88950 | 1971 ft | 112 kts | 352° |
| 2026-05-05 17:01 | 34.94415 | 136.88811 | 1970 ft | 112 kts | 352° |
| 2026-05-05 17:01 | 34.95197 | 136.88670 | 1922 ft | 116 kts | 352° |
| 2026-05-05 17:01 | 34.96006 | 136.88524 | 1851 ft | 118 kts | 352° |
| 2026-05-05 17:01 | 34.96819 | 136.88378 | 1776 ft | 117 kts | 352° |
| 2026-05-05 17:02 | 34.97625 | 136.88233 | 1699 ft | 117 kts | 352° |
| 2026-05-05 17:02 | 34.98428 | 136.88088 | 1623 ft | 117 kts | 352° |
| 2026-05-05 17:02 | 34.99230 | 136.87944 | 1545 ft | 116 kts | 352° |
| 2026-05-05 17:02 | 35.00032 | 136.87799 | 1477 ft | 116 kts | 352° |
| 2026-05-05 17:03 | 35.00812 | 136.87658 | 1479 ft | 114 kts | 352° |
| 2026-05-05 17:03 | 35.01597 | 136.87525 | 1476 ft | 114 kts | 359° |
| 2026-05-05 17:03 | 35.02370 | 136.87698 | 1479 ft | 113 kts | 12° |
| 2026-05-05 17:03 | 35.03138 | 136.87886 | 1480 ft | 112 kts | 12° |
| 2026-05-05 17:04 | 35.03905 | 136.88075 | 1475 ft | 113 kts | 12° |
| 2026-05-05 17:04 | 35.04675 | 136.88267 | 1480 ft | 113 kts | 12° |
| 2026-05-05 17:04 | 35.05446 | 136.88458 | 1481 ft | 113 kts | 12° |
| 2026-05-05 17:04 | 35.06218 | 136.88650 | 1481 ft | 113 kts | 12° |
| 2026-05-05 17:05 | 35.06981 | 136.88839 | 1481 ft | 113 kts | 12° |
| 2026-05-05 17:05 | 35.07751 | 136.89030 | 1479 ft | 113 kts | 12° |
| 2026-05-05 17:05 | 35.08522 | 136.89222 | 1479 ft | 113 kts | 12° |
| 2026-05-05 17:05 | 35.09294 | 136.89413 | 1480 ft | 113 kts | 12° |
| 2026-05-05 17:06 | 35.10070 | 136.89591 | 1474 ft | 113 kts | 4° |
| 2026-05-05 17:06 | 35.10851 | 136.89471 | 1475 ft | 113 kts | 352° |
| 2026-05-05 17:06 | 35.11630 | 136.89331 | 1475 ft | 113 kts | 352° |
| 2026-05-05 17:06 | 35.12407 | 136.89190 | 1474 ft | 113 kts | 352° |
| 2026-05-05 17:07 | 35.13137 | 136.88878 | 1466 ft | 113 kts | 321° |
| 2026-05-05 17:07 | 35.13603 | 136.88144 | 1469 ft | 112 kts | 291° |
| 2026-05-05 17:07 | 35.13888 | 136.87253 | 1469 ft | 112 kts | 292° |
| 2026-05-05 17:07 | 35.14174 | 136.86365 | 1468 ft | 112 kts | 292° |
| 2026-05-05 17:08 | 35.14461 | 136.85477 | 1471 ft | 112 kts | 292° |
| 2026-05-05 17:08 | 35.14748 | 136.84588 | 1471 ft | 112 kts | 292° |
| 2026-05-05 17:08 | 35.15034 | 136.83699 | 1471 ft | 113 kts | 292° |
| 2026-05-05 17:08 | 35.15320 | 136.82809 | 1471 ft | 113 kts | 292° |
| 2026-05-05 17:09 | 35.15608 | 136.81919 | 1471 ft | 113 kts | 292° |
| 2026-05-05 17:09 | 35.15894 | 136.81029 | 1469 ft | 112 kts | 292° |
| 2026-05-05 17:09 | 35.16176 | 136.80152 | 1468 ft | 112 kts | 292° |
| 2026-05-05 17:09 | 35.16463 | 136.79263 | 1467 ft | 112 kts | 292° |
| 2026-05-05 17:10 | 35.16749 | 136.78376 | 1470 ft | 112 kts | 292° |
| 2026-05-05 17:10 | 35.17035 | 136.77489 | 1469 ft | 112 kts | 292° |
| 2026-05-05 17:10 | 35.17319 | 136.76605 | 1468 ft | 112 kts | 292° |
| 2026-05-05 17:10 | 35.17603 | 136.75723 | 1463 ft | 112 kts | 292° |
| 2026-05-05 17:11 | 35.17887 | 136.74839 | 1468 ft | 112 kts | 292° |
| 2026-05-05 17:11 | 35.18172 | 136.73955 | 1468 ft | 112 kts | 292° |
| 2026-05-05 17:11 | 35.18453 | 136.73081 | 1465 ft | 112 kts | 292° |
| 2026-05-05 17:11 | 35.18738 | 136.72196 | 1468 ft | 112 kts | 292° |
| 2026-05-05 17:12 | 35.19022 | 136.71311 | 1467 ft | 112 kts | 292° |
| 2026-05-05 17:12 | 35.19307 | 136.70427 | 1466 ft | 112 kts | 292° |
| 2026-05-05 17:12 | 35.19591 | 136.69545 | 1466 ft | 111 kts | 291° |
| 2026-05-05 17:12 | 35.19857 | 136.68653 | 1467 ft | 112 kts | 297° |
| 2026-05-05 17:13 | 35.20358 | 136.67943 | 1469 ft | 111 kts | 329° |
| 2026-05-05 17:13 | 35.21029 | 136.67470 | 1467 ft | 111 kts | 331° |
| 2026-05-05 17:13 | 35.21738 | 136.67283 | 1537 ft | 106 kts | 22° |
| 2026-05-05 17:13 | 35.22354 | 136.67814 | 1464 ft | 113 kts | 16° |
| 2026-05-05 17:14 | 35.23119 | 136.67894 | 1469 ft | 111 kts | 27° |
| 2026-05-05 17:14 | 35.23439 | 136.68684 | 1482 ft | 111 kts | 100° |
| 2026-05-05 17:14 | 35.22952 | 136.69360 | 1484 ft | 111 kts | 153° |
| 2026-05-05 17:14 | 35.22274 | 136.69815 | 1483 ft | 112 kts | 152° |
| 2026-05-05 17:15 | 35.21575 | 136.70220 | 1484 ft | 112 kts | 166° |
| 2026-05-05 17:15 | 35.20813 | 136.70423 | 1481 ft | 112 kts | 167° |
| 2026-05-05 17:15 | 35.20052 | 136.70631 | 1479 ft | 112 kts | 168° |
| 2026-05-05 17:15 | 35.19291 | 136.70838 | 1483 ft | 112 kts | 168° |
| 2026-05-05 17:16 | 35.18540 | 136.71042 | 1479 ft | 112 kts | 168° |
| 2026-05-05 17:16 | 35.17779 | 136.71249 | 1483 ft | 112 kts | 168° |
| 2026-05-05 17:16 | 35.17017 | 136.71456 | 1478 ft | 112 kts | 168° |
| 2026-05-05 17:16 | 35.16258 | 136.71662 | 1482 ft | 112 kts | 168° |
| 2026-05-05 17:17 | 35.15499 | 136.71868 | 1480 ft | 112 kts | 168° |
| 2026-05-05 17:17 | 35.14741 | 136.72074 | 1471 ft | 112 kts | 168° |
| 2026-05-05 17:17 | 35.13982 | 136.72280 | 1481 ft | 112 kts | 168° |
| 2026-05-05 17:17 | 35.13224 | 136.72486 | 1474 ft | 112 kts | 168° |
| 2026-05-05 17:18 | 35.12465 | 136.72693 | 1481 ft | 112 kts | 168° |
| 2026-05-05 17:18 | 35.11707 | 136.72901 | 1474 ft | 112 kts | 166° |
| 2026-05-05 17:18 | 35.10971 | 136.73164 | 1475 ft | 112 kts | 164° |
| 2026-05-05 17:18 | 35.10227 | 136.73433 | 1479 ft | 111 kts | 164° |
| 2026-05-05 17:19 | 35.09479 | 136.73683 | 1480 ft | 112 kts | 167° |
| 2026-05-05 17:19 | 35.08723 | 136.73906 | 1476 ft | 112 kts | 167° |
| 2026-05-05 17:19 | 35.07964 | 136.74128 | 1480 ft | 112 kts | 167° |
| 2026-05-05 17:19 | 35.07208 | 136.74350 | 1481 ft | 112 kts | 167° |
| 2026-05-05 17:20 | 35.06449 | 136.74573 | 1475 ft | 112 kts | 167° |
| 2026-05-05 17:20 | 35.05690 | 136.74795 | 1480 ft | 112 kts | 167° |
| 2026-05-05 17:20 | 35.04940 | 136.75014 | 1474 ft | 112 kts | 167° |
| 2026-05-05 17:20 | 35.04227 | 136.75394 | 1472 ft | 113 kts | 144° |
| 2026-05-05 17:21 | 35.03741 | 136.76140 | 1468 ft | 112 kts | 129° |
| 2026-05-05 17:21 | 35.03238 | 136.76865 | 1466 ft | 112 kts | 144° |
| 2026-05-05 17:21 | 35.02498 | 136.76913 | 1471 ft | 111 kts | 199° |
| 2026-05-05 17:22 | 35.00964 | 136.77086 | 1471 ft | 111 kts | 171° |
| 2026-05-05 17:22 | 35.00199 | 136.77232 | 1469 ft | 111 kts | 171° |
| 2026-05-05 17:22 | 34.99445 | 136.77385 | 1475 ft | 111 kts | 171° |
| 2026-05-05 17:22 | 34.98682 | 136.77545 | 1471 ft | 111 kts | 171° |
| 2026-05-05 17:23 | 34.97918 | 136.77708 | 1475 ft | 111 kts | 171° |
| 2026-05-05 17:23 | 34.97154 | 136.77872 | 1470 ft | 111 kts | 171° |
| 2026-05-05 17:23 | 34.96391 | 136.78036 | 1476 ft | 111 kts | 171° |
| 2026-05-05 17:23 | 34.95626 | 136.78201 | 1468 ft | 112 kts | 170° |
| 2026-05-05 17:24 | 34.94847 | 136.78369 | 1363 ft | 114 kts | 170° |
| 2026-05-05 17:24 | 34.94053 | 136.78581 | 1185 ft | 118 kts | 168° |
| 2026-05-05 17:24 | 34.93244 | 136.78760 | 1047 ft | 118 kts | 171° |
| 2026-05-05 17:24 | 34.92445 | 136.78947 | 908 ft | 119 kts | 170° |
| 2026-05-05 17:25 | 34.91627 | 136.79146 | 787 ft | 120 kts | 169° |
| 2026-05-05 17:25 | 34.91083 | 136.79286 | 724 ft | 119 kts | 169° |
| 2026-05-05 17:25 | 34.90031 | 136.79534 | 520 ft | 114 kts | 169° |
| 2026-05-05 17:25 | 34.89261 | 136.79712 | 379 ft | 111 kts | 168° |
| 2026-05-05 17:26 | 34.88525 | 136.79900 | 254 ft | 105 kts | 168° |
| 2026-05-05 17:26 | 34.87837 | 136.80062 | 127 ft | 96 kts | 169° |
| 2026-05-05 17:26 | 34.87237 | 136.80205 | 40 ft | 80 kts | 168° |
| 2026-05-05 17:26 | 34.86752 | 136.80326 | 14 ft | 62 kts | 171° |
| 2026-05-05 17:27 | 34.86423 | 136.80401 | 15 ft | 31 kts | 169° |
| 2026-05-05 17:27 | 34.86246 | 136.80443 | 15 ft | 23 kts | 162° |
| 2026-05-05 17:27 | 34.86206 | 136.80513 | 15 ft | 8 kts | 17° |
| 2026-05-05 17:27 | 34.86254 | 136.80535 | 15 ft | 13 kts | 20° |
| 2026-05-05 17:28 | 34.86366 | 136.80583 | 14 ft | 21 kts | 20° |
| 2026-05-05 17:28 | 34.86456 | 136.80683 | 14 ft | 18 kts | 85° |
| 2026-05-05 17:28 | 34.86487 | 136.80808 | 14 ft | 13 kts | 49° |
| 2026-05-05 17:28 | 34.86562 | 136.80817 | 14 ft | 11 kts | 348° |
| 2026-05-05 17:29 | 34.86631 | 136.80802 | 14 ft | 9 kts | 5° |
| 2026-05-05 17:29 | 34.86651 | 136.80869 | 14 ft | 8 kts | 78° |
| 2026-05-05 17:29 | 34.86657 | 136.80910 | 14 ft | 0 kts | 81° |